Time;durP1;ratioP1;P1;durP2;ratioP2;P2;SDS_P1;SDS_P2;PMS_P1;PMS_P2;Temp;Humidity;BMP_temperature;BMP_pressure;BME280_temperature;BME280_humidity;BME280_pressure;Samples;Min_cycle;Max_cycle;Signal;HPM_P1;HPM_P2
2021/08/17 00:11:02;;;;;;;5.40;4.28;;;;;;;21.45;76.66;99939.91;2602899;54;20827;31
2021/08/17 00:28:29;;;;;;;5.82;4.25;;;;;;;21.50;77.01;99932.63;2701105;39;20735;31
2021/08/17 01:00:51;;;;;;;4.97;3.78;;;;;;;20.76;77.29;99924.25;2602614;54;20049;31
2021/08/17 01:15:49;;;;;;;6.15;4.60;;;;;;;20.86;78.10;99904.59;2602555;54;20514;31
2021/08/17 01:28:18;;;;;;;5.72;4.50;;;;;;;20.99;77.59;99901.00;2602194;54;20131;31
2021/08/17 01:38:18;;;;;;;22.83;5.00;;;;;;;20.52;79.73;99896.59;2602534;54;20072;31
2021/08/17 01:55:45;;;;;;;6.70;4.50;;;;;;;20.70;78.97;99897.91;2602339;54;20896;31
2021/08/17 02:13:13;;;;;;;7.60;4.50;;;;;;;20.43;79.55;99881.75;2602451;54;21729;31
2021/08/17 02:28:07;;;;;;;6.10;4.40;;;;;;;20.07;80.43;99879.09;2700832;39;21190;31
2021/08/17 02:30:39;;;;;;;5.45;4.45;;;;;;;19.67;81.36;99885.31;2602670;47;20998;31
2021/08/17 02:43:07;;;;;;;5.43;4.55;;;;;;;19.83;79.61;99876.44;2603103;54;20100;31
2021/08/17 02:50:35;;;;;;;6.55;4.55;;;;;;;19.64;80.41;99877.78;2603434;54;21012;31
2021/08/17 02:53:07;;;;;;;6.53;4.28;;;;;;;20.03;78.65;99882.81;2603401;46;20854;31
2021/08/17 02:58:09;;;;;;;6.03;4.78;;;;;;;19.44;81.99;99884.25;2603017;54;20245;31
2021/08/17 03:03:11;;;;;;;10.15;6.35;;;;;;;19.82;77.03;99887.72;2603256;54;20054;31
2021/08/17 03:30:43;;;;;;;20.45;7.35;;;;;;;19.10;76.91;99909.72;2634879;39;22292;31
2021/08/17 03:33:12;;;;;;;14.27;6.75;;;;;;;18.68;78.40;99903.75;2602896;54;20038;31
2021/08/17 03:35:44;;;;;;;12.00;7.15;;;;;;;18.56;79.59;99899.38;2603861;46;20714;31
2021/08/17 03:38:13;;;;;;;15.33;7.10;;;;;;;18.66;79.41;99907.38;2602971;54;20054;31
2021/08/17 03:40:45;;;;;;;13.48;6.28;;;;;;;18.90;78.25;99903.25;2603720;46;20913;31
2021/08/17 03:55:46;;;;;;;12.82;6.88;;;;;;;19.50;76.02;99901.91;2701321;39;20514;31
2021/08/17 04:10:41;;;;;;;14.55;6.78;;;;;;;19.73;72.92;99892.63;2603034;54;20033;31
2021/08/17 04:13:10;;;;;;;15.70;6.70;;;;;;;19.98;71.02;99897.81;2702013;39;22141;31
2021/08/17 04:15:43;;;;;;;12.77;6.97;;;;;;;20.46;72.14;99893.66;2603910;54;20865;31
2021/08/17 04:20:44;;;;;;;13.60;6.70;;;;;;;20.07;71.80;99899.75;2602657;54;20072;31
2021/08/17 04:30:37;;;;;;;14.23;7.50;;;;;;;20.96;70.77;99895.22;2628430;54;20041;-70
2021/08/17 04:33:03;;;;;;;13.38;8.93;;;;;;;20.54;72.07;99894.75;2629718;54;20023;-69
2021/08/17 04:35:31;;;;;;;12.32;8.93;;;;;;;19.98;73.30;99897.81;2628119;54;20003;-68
2021/08/17 04:37:57;;;;;;;16.00;7.88;;;;;;;19.92;78.95;99900.81;2627925;47;20019;-70
2021/08/17 04:40:23;;;;;;;9.63;7.05;;;;;;;19.97;81.48;99898.72;2628047;54;20013;-71
2021/08/17 04:42:49;;;;;;;15.82;7.40;;;;;;;19.96;81.31;99896.25;2627348;46;20023;-71
2021/08/17 04:45:15;;;;;;;10.18;7.35;;;;;;;19.92;81.54;99897.41;2627868;47;20010;-71
2021/08/17 04:47:50;;;;;;;10.95;7.03;;;;;;;20.11;80.72;99900.38;2628445;31;20515;-68
2021/08/17 04:50:22;;;;;;;15.05;7.10;;;;;;;19.75;81.95;99894.19;2628149;54;20018;-68
2021/08/17 04:52:48;;;;;;;9.35;7.18;;;;;;;20.22;80.47;99901.34;2626684;47;20014;-69
2021/08/17 04:55:14;;;;;;;11.05;7.20;;;;;;;20.35;79.73;99896.13;2627712;54;20018;-69
2021/08/17 04:57:50;;;;;;;11.88;7.43;;;;;;;20.45;79.32;99897.16;2628061;39;20411;-68
2021/08/17 05:00:17;;;;;;;10.60;7.68;;;;;;;20.82;78.13;99903.16;2627926;54;20010;-70
2021/08/17 05:02:42;;;;;;;10.25;7.32;;;;;;;20.94;77.21;99905.66;2627406;54;20055;-69
2021/08/17 05:05:09;;;;;;;11.10;6.70;;;;;;;21.20;76.45;99896.88;2626410;46;20014;-69
2021/08/17 05:07:38;;;;;;;10.30;6.70;;;;;;;20.88;77.52;99903.50;2626929;54;20538;-69
2021/08/17 05:10:06;;;;;;;15.43;7.20;;;;;;;21.42;75.87;99899.56;2626418;47;20597;-70
2021/08/17 05:12:34;;;;;;;14.68;7.38;;;;;;;21.45;74.83;99901.09;2626841;54;20050;-70
2021/08/17 05:15:02;;;;;;;9.05;6.95;;;;;;;21.58;75.14;99904.41;2624979;54;20010;-69
2021/08/17 05:17:28;;;;;;;8.38;6.68;;;;;;;21.64;74.53;99901.38;2624077;54;20010;-68
2021/08/17 05:19:54;;;;;;;8.80;6.70;;;;;;;21.84;74.21;99899.91;2624611;54;20018;-72
2021/08/17 05:22:21;;;;;;;12.65;6.93;;;;;;;22.59;71.36;99898.38;2625624;54;20006;-69
2021/08/17 05:24:48;;;;;;;12.43;8.88;;;;;;;22.60;71.83;99908.63;2626312;54;20546;-71
2021/08/17 05:27:14;;;;;;;11.77;7.40;;;;;;;22.26;71.81;99902.63;2626134;54;20002;-69
2021/08/17 05:37:38;;;;;;;10.25;6.15;;;;;;;22.70;70.40;99900.97;2621969;54;20581;-70
2021/08/17 05:40:06;;;;;;;11.75;5.75;;;;;;;23.31;68.65;99902.03;2622204;47;20034;-69
2021/08/17 05:42:33;;;;;;;9.60;6.13;;;;;;;23.68;67.20;99900.69;2624248;54;20026;-69
2021/08/17 05:44:58;;;;;;;11.13;6.00;;;;;;;23.61;66.81;99905.56;2624987;39;20376;-70
2021/08/17 05:47:25;;;;;;;7.93;5.85;;;;;;;23.80;66.33;99903.09;2624245;54;20030;-72
2021/08/17 05:49:51;;;;;;;10.90;6.40;;;;;;;23.41;65.90;99914.19;2624597;54;20054;-69
2021/08/17 05:52:17;;;;;;;10.50;5.55;;;;;;;24.08;63.30;99902.44;2623541;54;20007;-69
2021/08/17 05:54:43;;;;;;;8.18;5.43;;;;;;;24.07;63.53;99899.94;2623139;47;20018;-69
2021/08/17 05:57:09;;;;;;;7.95;4.88;;;;;;;23.85;64.05;99908.72;2621954;54;20017;-67
2021/08/17 05:59:35;;;;;;;7.88;5.20;;;;;;;23.50;64.77;99908.22;2626243;39;20419;-69
2021/08/17 06:02:02;;;;;;;7.25;4.50;;;;;;;24.98;60.97;99900.63;2625585;54;20590;-69
2021/08/17 06:04:29;;;;;;;9.18;5.20;;;;;;;24.49;61.74;99905.84;2625931;54;20007;-66
2021/08/17 06:06:55;;;;;;;8.50;5.35;;;;;;;24.62;61.63;99904.66;2625671;39;20057;-68
2021/08/17 06:09:22;;;;;;;9.93;5.22;;;;;;;24.99;60.66;99904.88;2624263;54;20009;-67
2021/08/17 06:11:53;;;;;;;9.18;5.43;;;;;;;24.60;61.49;99905.75;2624693;54;20002;-68
2021/08/17 06:14:19;;;;;;;7.90;5.30;;;;;;;24.50;62.01;99907.50;2624127;54;20041;-68
2021/08/17 06:16:46;;;;;;;9.40;5.60;;;;;;;24.63;61.41;99906.31;2626185;54;20007;-70
2021/08/17 06:19:12;;;;;;;12.02;5.60;;;;;;;24.89;60.67;99904.88;2627462;54;20002;-68
2021/08/17 06:21:38;;;;;;;12.10;5.28;;;;;;;25.30;60.15;99902.94;2628235;54;20014;-70
2021/08/17 06:24:05;;;;;;;8.70;5.00;;;;;;;25.21;60.44;99906.41;2625745;54;20015;-68
2021/08/17 06:26:32;;;;;;;7.38;5.32;;;;;;;25.36;59.65;99907.59;2625218;54;20011;-68
2021/08/17 06:28:58;;;;;;;11.65;4.95;;;;;;;25.31;60.67;99892.44;2625727;54;20006;-68
2021/08/17 06:31:24;;;;;;;11.55;5.43;;;;;;;26.01;58.52;99899.81;2626198;47;20082;-70
2021/08/17 06:33:52;;;;;;;10.73;4.85;;;;;;;26.33;58.13;99902.03;2626393;54;20518;-72
2021/08/17 06:36:18;;;;;;;9.10;4.85;;;;;;;25.99;58.63;99901.75;2626315;54;20010;-69
2021/08/17 06:46:37;;;;;;;10.50;4.70;;;;;;;25.88;57.37;99896.72;2626763;54;20150;-71
2021/08/17 06:49:03;;;;;;;10.13;5.05;;;;;;;26.45;56.96;99890.44;2627795;46;20054;-71
2021/08/17 06:51:32;;;;;;;12.63;5.18;;;;;;;27.00;55.00;99894.66;2628372;54;20022;-68
2021/08/17 06:53:58;;;;;;;7.85;4.53;;;;;;;26.84;55.16;99897.09;2626412;54;20014;-69
2021/08/17 06:56:25;;;;;;;8.27;4.70;;;;;;;27.21;54.21;99895.19;2626083;39;20410;-68
2021/08/17 06:58:51;;;;;;;11.30;4.85;;;;;;;27.27;52.97;99894.56;2623712;47;20518;-68
2021/08/17 07:01:16;;;;;;;6.82;4.00;;;;;;;27.25;53.55;99893.06;2622422;54;20037;-67
2021/08/17 07:03:42;;;;;;;4.93;4.10;;;;;;;26.60;54.24;99889.81;2622063;54;20011;-68
2021/08/17 07:06:08;;;;;;;8.55;4.18;;;;;;;27.50;52.69;99888.88;2623025;54;20030;-70
2021/08/17 07:08:34;;;;;;;7.80;4.25;;;;;;;27.54;52.54;99883.19;2622620;54;20033;-67
2021/08/17 07:11:00;;;;;;;7.85;4.00;;;;;;;27.88;50.54;99878.00;2622110;47;20029;-70
2021/08/17 07:13:26;;;;;;;6.25;3.83;;;;;;;27.81;49.06;99888.25;2623195;47;20029;-69
2021/08/17 07:15:53;;;;;;;5.70;3.88;;;;;;;27.86;49.05;99880.78;2623803;54;20541;-67
2021/08/17 07:18:20;;;;;;;6.22;4.43;;;;;;;28.18;46.87;99878.34;2622014;54;20011;-67
2021/08/17 07:20:46;;;;;;;6.55;3.53;;;;;;;27.88;46.71;99872.78;2622560;54;20010;-67
2021/08/17 07:23:12;;;;;;;5.95;3.38;;;;;;;28.37;46.79;99874.66;2622336;54;20003;-69
2021/08/17 07:25:39;;;;;;;6.47;3.40;;;;;;;28.00;45.02;99866.34;2621062;47;20582;-68
2021/08/17 07:28:05;;;;;;;7.50;4.00;;;;;;;28.67;42.79;99866.25;2621708;39;20402;-73
2021/08/17 07:30:32;;;;;;;6.05;3.50;;;;;;;28.60;43.81;99873.13;2621304;47;20011;-67
2021/08/17 07:32:58;;;;;;;6.45;3.35;;;;;;;28.88;41.18;99869.22;2621774;54;20011;-68
2021/08/17 07:35:24;;;;;;;6.55;3.40;;;;;;;28.78;41.94;99871.16;2621238;54;20014;-68
2021/08/17 07:37:50;;;;;;;4.28;3.42;;;;;;;28.80;41.50;99874.44;2621551;54;20007;-70
2021/08/17 07:40:17;;;;;;;4.35;3.10;;;;;;;29.56;39.42;99868.91;2620845;47;20602;-68
2021/08/17 07:42:45;;;;;;;6.63;2.80;;;;;;;29.36;37.72;99871.06;2621455;47;20010;-69
2021/08/17 07:45:12;;;;;;;5.00;2.67;;;;;;;29.40;36.89;99872.38;2622105;54;20209;-68
2021/08/17 07:52:39;;;;;;;6.55;3.28;;;;;;;29.93;37.96;99863.94;2620180;54;20041;-68
2021/08/17 07:55:10;;;;;;;4.13;2.83;;;;;;;30.05;36.75;99859.94;2621276;54;20050;-67
2021/08/17 07:57:36;;;;;;;4.32;3.00;;;;;;;29.38;36.35;99865.66;2622181;54;20018;-68
2021/08/17 08:00:04;;;;;;;6.80;3.40;;;;;;;29.65;34.78;99857.44;2621138;54;20018;-67
2021/08/17 08:02:30;;;;;;;5.45;3.03;;;;;;;30.20;33.96;99863.50;2620046;47;20007;-69
2021/08/17 08:04:57;;;;;;;7.57;3.40;;;;;;;29.88;34.83;99861.00;2622205;54;20031;-68
2021/08/17 08:07:22;;;;;;;5.07;3.22;;;;;;;29.52;35.38;99857.09;2622245;54;20086;-67
2021/08/17 08:09:48;;;;;;;4.47;2.85;;;;;;;30.27;34.33;99859.19;2622187;39;20426;-69
2021/08/17 08:12:14;;;;;;;6.63;3.30;;;;;;;28.66;37.38;99861.19;2621754;54;20539;-67
2021/08/17 08:14:41;;;;;;;6.75;4.25;;;;;;;29.62;35.90;99860.38;2620962;47;20010;-67
2021/08/17 08:17:08;;;;;;;6.40;3.35;;;;;;;30.29;35.30;99854.59;2622735;54;20014;-70
2021/08/17 08:19:35;;;;;;;5.40;3.17;;;;;;;30.07;35.83;99851.91;2623753;54;20041;-68
2021/08/17 08:22:07;;;;;;;4.97;2.90;;;;;;;30.10;35.46;99848.94;2623811;54;20018;-70
2021/08/17 08:24:32;;;;;;;4.20;3.08;;;;;;;30.60;34.84;99854.63;2623626;54;20038;-70
2021/08/17 08:26:59;;;;;;;6.38;3.55;;;;;;;30.26;34.70;99846.25;2623107;54;20537;-66
2021/08/17 08:29:25;;;;;;;9.32;3.45;;;;;;;31.55;33.77;99840.88;2622099;54;20014;-69
2021/08/17 08:31:51;;;;;;;3.75;2.92;;;;;;;31.65;33.19;99841.44;2621935;54;20103;-71
2021/08/17 08:34:17;;;;;;;5.55;3.30;;;;;;;31.42;32.99;99840.69;2621877;54;20518;-67
2021/08/17 08:36:43;;;;;;;6.13;3.22;;;;;;;32.38;31.90;99838.72;2621602;54;20034;-67
2021/08/17 08:39:09;;;;;;;5.03;3.03;;;;;;;32.55;31.20;99840.16;2622144;54;20007;-67
2021/08/17 08:41:35;;;;;;;10.77;3.40;;;;;;;32.22;32.16;99837.16;2621772;54;20003;-67
2021/08/17 08:44:01;;;;;;;5.63;3.10;;;;;;;31.54;31.51;99833.97;2621467;54;20194;-69
2021/08/17 08:46:30;;;;;;;5.00;3.15;;;;;;;31.10;31.96;99838.34;2621911;54;20063;-67
2021/08/17 08:48:56;;;;;;;5.78;3.05;;;;;;;31.61;32.33;99829.66;2622187;39;20427;-68
2021/08/17 08:51:22;;;;;;;4.20;3.08;;;;;;;31.71;30.88;99822.31;2622203;54;20020;-69
2021/08/17 08:59:05;;;;;;;6.25;2.92;;;;;;;33.03;30.71;99815.72;2622997;54;20062;-68
2021/08/17 09:01:31;;;;;;;6.70;3.50;;;;;;;31.40;31.17;99824.25;2621959;54;20030;-71
2021/08/17 09:03:57;;;;;;;6.68;3.30;;;;;;;31.27;31.83;99819.63;2622239;54;20535;-68
2021/08/17 09:06:28;;;;;;;3.58;3.10;;;;;;;32.48;30.79;99823.47;2621984;54;20023;-68
2021/08/17 09:09:18;;;;;;;6.32;3.08;;;;;;;32.30;31.02;99812.53;2621637;54;20011;-69
2021/08/17 09:11:49;;;;;;;8.77;3.20;;;;;;;32.48;29.77;99809.50;2621464;54;20011;-69
2021/08/17 09:14:32;;;;;;;5.85;3.72;;;;;;;32.81;30.38;99810.59;2621332;47;20574;-68
2021/08/17 09:17:03;;;;;;;7.15;3.13;;;;;;;32.59;30.21;99808.97;2621886;54;20021;-68
2021/08/17 09:19:37;;;;;;;6.55;3.33;;;;;;;33.49;29.16;99807.31;2621495;54;20027;-69
2021/08/17 09:22:17;;;;;;;7.93;3.30;;;;;;;32.54;29.22;99809.56;2620543;47;20015;-68
2021/08/17 09:24:45;;;;;;;5.80;3.50;;;;;;;33.04;29.46;99801.50;2620744;47;20626;-68
2021/08/17 09:27:16;;;;;;;8.02;3.30;;;;;;;33.00;30.23;99799.47;2621221;54;20256;-68
2021/08/17 09:29:45;;;;;;;4.47;3.20;;;;;;;33.85;28.13;99792.09;2620714;54;20043;-68
2021/08/17 09:32:14;;;;;;;6.45;3.15;;;;;;;34.14;27.86;99797.09;2620919;39;20406;-69
2021/08/17 09:34:41;;;;;;;3.60;2.85;;;;;;;34.00;26.65;99788.31;2620495;54;20051;-69
2021/08/17 09:37:10;;;;;;;6.18;3.30;;;;;;;33.47;27.82;99781.13;2620216;54;20035;-68
2021/08/17 09:39:45;;;;;;;6.57;3.22;;;;;;;33.89;27.29;99783.56;2620308;54;20006;-69
2021/08/17 09:42:13;;;;;;;9.90;3.33;;;;;;;33.68;27.29;99781.03;2619818;47;20010;-68
2021/08/17 09:44:40;;;;;;;3.35;2.53;;;;;;;33.77;27.40;99774.59;2620649;54;20014;-67
2021/08/17 09:47:06;;;;;;;4.55;2.90;;;;;;;32.98;28.09;99770.63;2620451;54;20049;-69
2021/08/17 09:49:32;;;;;;;5.15;3.17;;;;;;;33.60;26.98;99772.47;2620478;54;20090;-69
2021/08/17 09:52:18;;;;;;;6.18;3.08;;;;;;;34.20;26.11;99769.06;2620815;54;20568;-68
2021/08/17 09:54:45;;;;;;;3.95;3.05;;;;;;;33.96;26.75;99770.38;2619362;47;20007;-68
2021/08/17 10:05:38;;;;;;;4.85;2.90;;;;;;;33.56;26.44;99750.94;2618074;54;20038;-67
2021/08/17 10:08:05;;;;;;;4.88;3.13;;;;;;;34.49;25.64;99751.06;2619740;54;20053;-69
2021/08/17 10:10:32;;;;;;;5.50;3.17;;;;;;;34.36;26.17;99750.19;2621970;54;20117;-67
2021/08/17 10:12:59;;;;;;;6.60;3.10;;;;;;;34.70;24.40;99750.06;2622100;39;20542;-67
2021/08/17 10:15:25;;;;;;;4.68;2.90;;;;;;;34.46;23.40;99746.16;2621788;54;20006;-69
2021/08/17 10:17:51;;;;;;;4.65;2.90;;;;;;;34.70;23.25;99745.59;2622277;39;20406;-69
2021/08/17 10:20:17;;;;;;;3.05;2.58;;;;;;;35.10;22.82;99740.28;2622297;54;20011;-72
2021/08/17 10:22:43;;;;;;;4.22;3.00;;;;;;;34.96;23.05;99731.53;2622027;54;20014;-69
2021/08/17 10:25:17;;;;;;;4.50;2.60;;;;;;;35.10;22.61;99741.06;2622879;39;20410;-69
2021/08/17 10:27:43;;;;;;;5.57;2.83;;;;;;;35.41;23.60;99732.47;2622070;54;20102;-67
2021/08/17 10:30:17;;;;;;;5.90;2.88;;;;;;;35.29;22.26;99729.66;2621697;54;20007;-71
2021/08/17 10:32:55;;;;;;;4.57;2.92;;;;;;;35.70;21.95;99729.31;2622112;47;20141;-69
2021/08/17 10:35:32;;;;;;;4.22;3.13;;;;;;;34.78;22.66;99721.56;2622797;39;20882;-68
2021/08/17 10:38:06;;;;;;;4.22;2.90;;;;;;;35.67;21.99;99730.56;2621747;54;20010;-71
2021/08/17 10:40:53;;;;;;;6.22;2.83;;;;;;;34.15;24.11;99722.13;2621149;54;20066;-70
2021/08/17 10:43:30;;;;;;;7.85;2.90;;;;;;;35.51;23.82;99712.53;2620886;54;19999;-69
2021/08/17 10:46:00;;;;;;;5.05;2.92;;;;;;;34.64;23.56;99713.88;2620099;54;20007;-69
2021/08/17 10:48:50;;;;;;;3.87;2.90;;;;;;;34.70;23.13;99705.94;2618964;54;20530;-68
2021/08/17 10:51:19;;;;;;;4.72;3.05;;;;;;;35.72;22.47;99700.81;2618070;47;20007;-68
2021/08/17 10:53:52;;;;;;;5.72;3.13;;;;;;;35.86;23.63;99704.19;2619072;54;20002;-70
2021/08/17 10:56:19;;;;;;;4.47;3.03;;;;;;;35.78;23.48;99692.00;2618902;54;20015;-67
2021/08/17 10:58:51;;;;;;;3.40;2.88;;;;;;;36.73;23.23;99691.75;2618667;54;20037;-67
2021/08/17 11:01:35;;;;;;;5.22;2.70;;;;;;;35.19;23.44;99697.53;2619607;54;20519;-68
2021/08/17 11:04:11;;;;;;;4.95;2.92;;;;;;;35.62;21.77;99693.31;2618874;47;20057;-66
2021/08/17 11:06:53;;;;;;;5.03;2.90;;;;;;;35.45;22.78;99681.59;2620197;39;20107;-70
2021/08/17 11:09:25;;;;;;;6.25;3.33;;;;;;;36.07;22.47;99688.78;2618573;54;20031;-68
2021/08/17 11:12:06;;;;;;;5.63;3.33;;;;;;;35.64;22.64;99675.41;2619534;47;20030;-71
2021/08/17 11:14:37;;;;;;;4.22;2.92;;;;;;;35.06;22.12;99670.31;2618992;47;20029;-70
2021/08/17 11:17:04;;;;;;;4.35;3.10;;;;;;;35.52;22.63;99661.19;2620625;54;20018;-69
2021/08/17 11:19:34;;;;;;;4.28;3.00;;;;;;;35.70;22.73;99656.00;2620352;54;20002;-73
2021/08/17 11:22:06;;;;;;;3.78;3.08;;;;;;;36.32;21.84;99652.56;2623095;39;20422;-69
2021/08/17 11:24:51;;;;;;;5.88;3.05;;;;;;;36.21;22.13;99647.16;2620255;54;20009;-70
2021/08/17 11:27:35;;;;;;;5.43;3.33;;;;;;;36.26;22.28;99642.81;2619242;54;20019;-68
2021/08/17 11:30:13;;;;;;;4.80;3.10;;;;;;;36.69;21.89;99647.38;2619549;54;20607;-69
2021/08/17 11:32:48;;;;;;;3.65;3.15;;;;;;;36.56;21.29;99640.34;2619608;54;20017;-70
2021/08/17 11:35:17;;;;;;;4.07;3.00;;;;;;;36.08;21.00;99632.16;2620294;39;20812;-70
2021/08/17 11:37:48;;;;;;;4.97;3.40;;;;;;;37.06;21.00;99633.91;2619625;54;20025;-70
2021/08/17 11:40:17;;;;;;;6.38;2.80;;;;;;;37.10;21.67;99631.63;2619347;54;20049;-70
2021/08/17 11:42:45;;;;;;;5.22;2.90;;;;;;;37.11;21.75;99631.41;2619297;54;20030;-70
2021/08/17 11:45:18;;;;;;;5.85;2.95;;;;;;;36.90;22.11;99623.09;2619351;54;20007;-70
2021/08/17 11:47:46;;;;;;;5.60;3.33;;;;;;;37.50;20.99;99624.78;2619952;39;20446;-73
2021/08/17 11:50:15;;;;;;;4.05;3.20;;;;;;;36.98;21.00;99614.84;2618956;47;19998;-73
2021/08/17 11:52:49;;;;;;;5.13;3.13;;;;;;;37.70;21.34;99619.19;2620038;54;20825;-71
2021/08/17 11:55:18;;;;;;;7.57;3.10;;;;;;;37.59;21.54;99622.63;2619987;54;20026;-69
2021/08/17 11:57:47;;;;;;;3.88;3.05;;;;;;;37.46;21.32;99613.00;2620350;54;20038;-69
2021/08/17 12:00:33;;;;;;;4.80;3.03;;;;;;;37.14;21.37;99604.41;2619626;54;20123;-70
2021/08/17 12:03:02;;;;;;;5.03;3.08;;;;;;;37.72;21.41;99603.84;2619308;54;20023;-70
2021/08/17 12:05:30;;;;;;;6.45;3.13;;;;;;;37.20;21.78;99597.41;2619220;47;20066;-70
2021/08/17 12:07:58;;;;;;;7.75;2.85;;;;;;;36.47;22.47;99592.09;2619832;47;20022;-69
2021/08/17 12:10:29;;;;;;;6.43;3.22;;;;;;;36.51;21.80;99595.09;2620898;39;20446;-70
2021/08/17 12:13:14;;;;;;;3.95;3.08;;;;;;;37.98;22.02;99598.16;2619836;54;20034;-71
2021/08/17 12:15:56;;;;;;;7.05;3.05;;;;;;;36.84;21.94;99597.41;2619625;54;20011;-71
2021/08/17 12:18:31;;;;;;;4.10;2.90;;;;;;;36.37;22.47;99594.41;2619479;54;20294;-69
2021/08/17 12:21:09;;;;;;;3.05;2.75;;;;;;;37.49;21.34;99590.50;2619855;39;20414;-70
2021/08/17 12:23:53;;;;;;;7.88;3.10;;;;;;;37.48;22.34;99581.72;2619026;47;20009;-70
2021/08/17 12:26:24;;;;;;;4.07;2.85;;;;;;;38.21;21.14;99571.63;2619749;39;20438;-70
2021/08/17 12:28:53;;;;;;;6.15;3.10;;;;;;;37.13;21.67;99570.16;2618885;46;20010;-71
2021/08/17 12:31:25;;;;;;;4.60;3.03;;;;;;;36.70;22.31;99562.28;2619270;54;20006;-70
2021/08/17 12:34:16;;;;;;;6.22;2.70;;;;;;;37.65;21.53;99553.50;2619463;54;20018;-69
2021/08/17 12:36:43;;;;;;;3.30;2.60;;;;;;;37.74;21.16;99551.31;2618298;47;20006;-70
2021/08/17 12:39:21;;;;;;;3.25;2.95;;;;;;;37.02;22.43;99545.19;2618156;54;20006;-68
2021/08/17 12:41:48;;;;;;;5.53;3.20;;;;;;;36.94;22.30;99542.88;2617619;54;20011;-70
2021/08/17 12:44:18;;;;;;;6.88;3.10;;;;;;;37.68;22.25;99538.94;2617479;47;20018;-70
2021/08/17 12:47:13;;;;;;;4.70;2.90;;;;;;;36.90;22.83;99540.88;2617667;54;20036;-70
2021/08/17 12:49:40;;;;;;;7.47;3.17;;;;;;;36.79;22.96;99531.78;2619104;54;20007;-70
2021/08/17 12:52:39;;;;;;;5.20;3.00;;;;;;;36.54;22.52;99533.72;2619666;54;20006;-71
2021/08/17 12:55:18;;;;;;;3.33;2.80;;;;;;;36.11;22.89;99517.03;2619108;54;20030;-70
2021/08/17 12:57:46;;;;;;;5.60;2.78;;;;;;;37.05;22.77;99525.38;2619094;54;20002;-69
2021/08/17 13:00:14;;;;;;;4.70;2.72;;;;;;;37.01;21.50;99516.22;2618927;54;20022;-69
2021/08/17 13:02:41;;;;;;;3.83;3.03;;;;;;;37.75;21.38;99508.63;2619319;54;20026;-69
2021/08/17 13:05:08;;;;;;;5.07;2.97;;;;;;;36.81;22.07;99510.34;2619189;54;20034;-69
2021/08/17 13:07:35;;;;;;;4.45;2.80;;;;;;;36.93;20.53;99514.72;2619362;54;20010;-69
2021/08/17 13:10:07;;;;;;;4.50;2.70;;;;;;;36.82;20.60;99509.31;2619282;54;20003;-70
2021/08/17 13:12:32;;;;;;;4.10;2.40;;;;;;;37.13;21.07;99504.66;2618975;54;20015;-70
2021/08/17 13:14:59;;;;;;;5.45;2.90;;;;;;;37.91;20.18;99497.34;2619278;54;20022;-71
2021/08/17 13:17:25;;;;;;;3.25;2.55;;;;;;;37.22;20.79;99497.97;2619190;54;20090;-69
2021/08/17 13:19:51;;;;;;;3.45;2.47;;;;;;;37.07;20.75;99507.38;2619778;54;20078;-68
2021/08/17 13:22:18;;;;;;;3.80;2.25;;;;;;;35.89;21.11;99491.94;2619452;54;20018;-69
2021/08/17 13:29:40;;;;;;;3.80;2.65;;;;;;;37.16;20.14;99503.38;2618132;54;20058;-70
2021/08/17 13:32:06;;;;;;;4.78;2.70;;;;;;;37.11;19.98;99498.75;2619237;54;20032;-71
2021/08/17 13:34:32;;;;;;;6.45;2.40;;;;;;;36.69;20.40;99496.25;2619365;54;20102;-70
2021/08/17 13:36:59;;;;;;;4.85;2.70;;;;;;;36.70;20.59;99485.41;2620903;39;20380;-70
2021/08/17 13:39:26;;;;;;;5.40;2.88;;;;;;;37.01;19.51;99487.06;2620583;54;20014;-71
2021/08/17 13:41:51;;;;;;;6.22;2.30;;;;;;;36.88;19.72;99480.13;2621059;54;20015;-69
2021/08/17 13:44:17;;;;;;;2.90;2.20;;;;;;;36.74;18.94;99478.63;2620137;47;20025;-69
2021/08/17 13:46:42;;;;;;;5.05;2.58;;;;;;;37.24;18.98;99474.66;2620554;47;20099;-70
2021/08/17 13:49:08;;;;;;;3.13;2.50;;;;;;;37.72;20.29;99474.53;2619761;54;20014;-71
2021/08/17 13:51:34;;;;;;;3.60;2.38;;;;;;;36.99;19.20;99482.00;2619248;39;20411;-69
2021/08/17 13:54:00;;;;;;;3.85;2.35;;;;;;;36.63;18.86;99468.78;2619604;54;20018;-71
2021/08/17 13:56:25;;;;;;;4.32;2.55;;;;;;;36.83;19.64;99465.84;2619822;54;20037;-70
2021/08/17 13:58:51;;;;;;;3.80;2.30;;;;;;;36.99;18.82;99471.38;2619423;54;20207;-70
2021/08/17 14:01:17;;;;;;;3.92;2.30;;;;;;;36.83;19.12;99466.66;2618855;54;20594;-69
2021/08/17 14:03:44;;;;;;;3.08;2.42;;;;;;;36.98;18.58;99461.00;2619330;54;20011;-69
2021/08/17 14:06:10;;;;;;;3.20;2.20;;;;;;;37.04;19.68;99460.88;2619550;54;20565;-70
2021/08/17 14:08:36;;;;;;;4.00;2.35;;;;;;;37.24;19.38;99465.94;2619200;54;20011;-70
2021/08/17 14:11:02;;;;;;;3.05;2.35;;;;;;;36.99;18.71;99465.25;2619447;54;20562;-70
2021/08/17 14:13:28;;;;;;;3.97;2.40;;;;;;;36.61;17.95;99457.56;2619894;54;20591;-70
2021/08/17 14:16:00;;;;;;;2.30;2.00;;;;;;;35.80;18.47;99450.88;2619202;54;20010;-70
2021/08/17 14:18:26;;;;;;;2.78;2.22;;;;;;;36.46;18.83;99454.50;2618887;54;20007;-70
2021/08/17 14:20:52;;;;;;;3.85;2.20;;;;;;;36.30;18.67;99450.59;2619132;54;20014;-71
2021/08/17 14:23:18;;;;;;;3.90;2.28;;;;;;;36.34;18.79;99451.78;2618849;54;20094;-70
2021/08/17 14:25:44;;;;;;;7.05;2.65;;;;;;;36.42;18.87;99453.34;2619875;39;20434;-69
2021/08/17 14:28:10;;;;;;;7.00;2.47;;;;;;;36.04;18.95;99448.22;2619679;54;20113;-71
2021/08/17 14:30:39;;;;;;;5.28;2.38;;;;;;;36.47;19.58;99450.81;2618835;54;20006;-70
2021/08/17 14:33:05;;;;;;;3.10;2.50;;;;;;;36.02;20.09;99454.78;2618939;47;20074;-70
2021/08/17 14:35:33;;;;;;;4.15;2.47;;;;;;;36.18;20.24;99440.94;2621013;47;20026;-70
2021/08/17 14:38:00;;;;;;;3.38;2.40;;;;;;;35.50;20.80;99438.34;2624297;54;20003;-69
2021/08/17 14:40:26;;;;;;;3.45;2.45;;;;;;;36.37;20.40;99446.03;2619888;54;20002;-70
2021/08/17 14:42:51;;;;;;;2.45;2.25;;;;;;;36.07;20.85;99447.00;2618436;47;20038;-70
2021/08/17 14:45:17;;;;;;;4.38;2.40;;;;;;;35.94;21.37;99436.53;2619869;54;20050;-69
2021/08/17 14:47:43;;;;;;;3.35;2.38;;;;;;;35.95;20.80;99438.97;2620110;54;20041;-72
2021/08/17 14:50:09;;;;;;;3.42;2.55;;;;;;;36.10;20.21;99434.13;2619421;47;20006;-70
2021/08/17 14:52:35;;;;;;;3.40;2.50;;;;;;;36.30;21.04;99432.06;2622041;47;20043;-71
2021/08/17 14:55:01;;;;;;;3.10;2.50;;;;;;;36.00;21.77;99431.16;2622150;47;20003;-69
2021/08/17 14:57:31;;;;;;;4.07;2.63;;;;;;;36.45;21.11;99431.69;2621317;54;20530;-70
2021/08/17 14:59:56;;;;;;;4.70;2.63;;;;;;;36.42;20.81;99425.00;2623867;54;20011;-71
2021/08/17 15:02:22;;;;;;;3.72;2.53;;;;;;;35.52;21.54;99420.41;2622369;47;20030;-70
2021/08/17 15:04:48;;;;;;;3.90;2.40;;;;;;;35.42;21.61;99420.03;2621690;39;20469;-68
2021/08/17 15:07:14;;;;;;;5.78;2.50;;;;;;;35.61;21.06;99427.06;2620694;54;20010;-69
2021/08/17 15:09:40;;;;;;;2.92;2.40;;;;;;;35.64;20.98;99415.19;2620821;39;20391;-69
2021/08/17 15:12:07;;;;;;;4.15;2.58;;;;;;;35.39;21.40;99417.03;2620436;54;20011;-71
2021/08/17 15:14:33;;;;;;;3.80;2.55;;;;;;;35.93;21.36;99413.75;2620616;54;20022;-70
2021/08/17 15:16:59;;;;;;;4.55;2.47;;;;;;;35.39;21.31;99411.75;2624161;54;20013;-71
2021/08/17 15:19:26;;;;;;;5.20;2.72;;;;;;;35.24;21.60;99412.06;2622361;54;20538;-70
2021/08/17 15:21:57;;;;;;;5.47;2.60;;;;;;;35.39;21.49;99412.56;2619626;54;20057;-70
2021/08/17 15:24:24;;;;;;;3.50;2.40;;;;;;;35.11;21.21;99414.81;2622201;47;20042;-69
2021/08/17 15:26:50;;;;;;;4.95;2.63;;;;;;;35.05;21.38;99409.56;2622613;47;20059;-71
2021/08/17 15:29:16;;;;;;;3.67;2.42;;;;;;;35.21;21.64;99415.13;2624286;47;20034;-70
2021/08/17 15:42:37;;;;;;;4.03;2.40;;;;;;;35.22;21.77;99411.47;2621784;54;20058;-71
2021/08/17 15:45:07;;;;;;;3.97;2.60;;;;;;;34.92;21.48;99403.28;2629748;54;20007;-70
2021/08/17 15:47:36;;;;;;;4.28;2.40;;;;;;;34.99;21.58;99411.22;2629835;46;20030;-75
2021/08/17 15:57:30;;;;;;;3.00;2.70;;;;;;;34.82;22.00;99410.09;2624004;54;20045;-71
2021/08/17 15:59:56;;;;;;;3.15;2.53;;;;;;;34.67;21.64;99412.19;2619852;31;20594;-70
2021/08/17 16:02:22;;;;;;;2.85;2.47;;;;;;;34.67;21.88;99410.38;2627542;54;20010;-69
2021/08/17 16:04:47;;;;;;;3.65;2.22;;;;;;;34.52;22.02;99406.41;2622117;54;20585;-71